Hit Tracker is now ESPN Home Run Tracker! Hit Tracker founder Greg Rybarczyk is now collaborating with the ESPN Stats & Information Group to continue tracking all MLB home runs, and helping baseball fans know "How Far It Really Went!™" Please credit any information on this site to ESPN Stats & Information Group. For more information and analysis on home runs, please contact founder Greg Rybarczyk. E-Mail ESPN Home Run Tracker
Main Page | Ballparks | Park Overlays | Glossary | Highlight Homers | Feedback | Bio | 3 Types of HR's | AAA Home Run Derby Last Updated: May 26, 2017, 10:56 pm PST
If you want to know "How Far It Really Went!", then you've come to the right place! Welcome to the ESPN Home Run Tracker, where you can find accurate, transparently verifiable distances for every home run hit in MLB games. Please also check out the ESPN MLB Scoreboard throughout the 2017 season! Contact us at grybar@hittrackeronline.com.
Season:
Ballpark detail for Safeco Field
Ballpark # of Home Runs HR per game Avg.
True
Distance
Avg.
Speed
Off
Bat
Avg.
Std.
Dist.
Safeco Field 50 2.27 391.1 103 391.6

Scatter Plot of Home Runs Safeco Field
 Overlay Ballpark:
Without range rings   With range rings

2017 Season Home Runs for Safeco Field
Click headers to sort
Date Video Path Hitter Hitter
Team
Pitcher Pitcher
Team
INN Ballpark Type/
Luck
True
Dist.
Speed
Off
Bat
Elev.
Angle
Horiz.
Angle
Apex Impact Due To: Std.
Dist.
#
Parks
Wind Temp. ^ Alt.
05/21/17 Video View Anderson, Tim CHW Heston, Chris SEA 3 Safeco Field JE 354 95.9 36.8 113.0 118 4 2 0 348 2
05/20/17 Video View Garcia, Avisail CHW Gallardo, Yovani SEA 1 Safeco Field JE 362 95.5 32.5 111.5 95 3 1 0 358 4
05/21/17 Video View Cruz, Nelson SEA Holland, Derek CHW 7 Safeco Field PL 394 99.7 30.3 103.7 98 4 1 0 390 20
04/14/17 Video View Cruz, Nelson SEA Perez, Martin TEX 4 Safeco Field JE 409 109.8 18.5 86.9 55 0 0 0 409 5
04/19/17 Video View Suzuki, Ichiro MIA Marshall, Evan SEA 9 Safeco Field JE 380 100.9 24.7 76.4 70 0 0 0 381 7
05/03/17 Video View Cano, Robinson SEA Nolasco, Ricky LAA 1 Safeco Field PL 361 96.8 30.8 62.7 82 4 0 0 357 19
05/03/17 Video View Calhoun, Kole LAA Diaz, Edwin SEA 9 Safeco Field JE 356 100.5 24.3 66.4 58 0 0 0 356 7
05/18/17 Video View Dyson, Jarrod SEA Covey, Dylan CHW 3 Safeco Field JE 359 100.5 24.6 66.7 59 0 0 0 358 8
05/19/17 Video View Abreu, Jose CHW Miranda, Ariel SEA 6 Safeco Field ND 444 112.0 25.9 104.8 98 -3 0 0 448 30
05/20/17 Video View Garcia, Avisail CHW Gallardo, Yovani SEA 3 Safeco Field JE/L 391 97.2 29.9 84.0 94 5 0 0 386 1
04/11/17 Video View Springer, George HOU Miranda, Ariel SEA 1 Safeco Field PL 424 109.1 22.8 100.4 78 0 -1 0 424 30
04/15/17 Video View Motter, Taylor SEA Hauschild, Mike TEX 6 Safeco Field ND 404 108.2 26.1 117.2 75 3 -1 0 403 30
04/17/17 Video View Cano, Robinson SEA Koehler, Tom MIA 1 Safeco Field ND 440 110.8 22.7 82.3 79 0 -1 0 441 30
04/17/17 Video View Cruz, Nelson SEA Koehler, Tom MIA 1 Safeco Field PL 415 104.8 22.8 88.2 75 0 -1 -1 416 21
04/19/17 Video View Yelich, Christian MIA Hernandez, Felix SEA 5 Safeco Field PL 415 107.3 23.7 102.0 75 0 -1 0 416 30
05/03/17 Video View Segura, Jean SEA Nolasco, Ricky LAA 5 Safeco Field PL 376 107.5 24.6 126.2 62 -1 -1 0 377 30
05/03/17 Video View Trout, Mike LAA Iwakuma, Hisashi SEA 6 Safeco Field PL 413 103.0 25.6 94.2 88 -1 -1 0 415 20
05/04/17 Video View Valencia, Danny SEA Wright, Daniel LAA 7 Safeco Field ND 413 106.2 29.6 110.7 101 0 -1 0 413 30
05/05/17 Video View Cano, Robinson SEA Darvish, Yu TEX 4 Safeco Field PL 363 103.5 24.1 60.1 57 2 -1 0 361 15
05/06/17 Video View Gallo, Joey TEX De Jong, Chase SEA 2 Safeco Field ND 424 108.2 24.9 76.2 80 1 -1 0 424 30
05/15/17 Video View Seager, Kyle SEA Hendriks, Liam OAK 8 Safeco Field JE 400 102.6 23.2 85.0 72 0 -1 0 401 8
05/16/17 Video View Cruz, Nelson SEA Triggs, Andrew OAK 1 Safeco Field JE 396 103.6 23.2 80.3 69 0 -1 0 397 19
05/16/17 Video View Joyce, Matt OAK Cishek, Steve SEA 9 Safeco Field JE/L 389 108.7 20.3 76.9 54 0 -1 -1 390 13
05/16/17 Video View Canha, Mark OAK Rzepczynski, Marc SEA 9 Safeco Field JE 401 102.0 24.0 95.1 76 0 -1 0 401 5
05/18/17 Video View Segura, Jean SEA Covey, Dylan CHW 5 Safeco Field PL 393 106.8 25.3 115.3 70 0 -1 0 394 30
05/18/17 Video View Anderson, Tim CHW Altavilla, Dan SEA 8 Safeco Field PL 377 100.7 25.7 72.5 71 0 -1 0 377 19
05/20/17 Video View Davidson, Matt CHW Overton, Dillon SEA 7 Safeco Field PL 375 99.0 34.2 115.6 107 8 -1 0 368 27
05/20/17 Video View Garcia, Willy CHW Overton, Dillon SEA 7 Safeco Field ND 392 106.7 32.2 117.3 116 -12 -1 0 406 30
04/12/17 Video View Motter, Taylor SEA Fiers, Mike HOU 3 Safeco Field PL 384 104.3 28.1 120.8 79 0 -2 0 386 30
04/16/17 Video View Choo, Shin-Soo TEX Iwakuma, Hisashi SEA 2 Safeco Field PL 407 102.9 32.6 74.8 117 8 -2 0 402 30
04/16/17 Video View Haniger, Mitch SEA Hamels, Cole TEX 3 Safeco Field PL 410 101.2 30.1 97.1 106 4 -2 0 407 21
04/16/17 Video View Heredia, Guillermo SEA Barnette, Tony TEX 7 Safeco Field PL 355 96.9 36.1 116.2 112 4 -2 0 353 18
04/16/17 Video View Mazara, Nomar TEX Diaz, Edwin SEA 9 Safeco Field PL 352 98.8 39.4 66.6 137 11 -2 0 343 10
04/17/17 Video View Yelich, Christian MIA Scribner, Evan SEA 9 Safeco Field PL 387 102.1 27.6 110.1 82 0 -2 0 389 30
04/18/17 Video View Bour, Justin MIA Gallardo, Yovani SEA 3 Safeco Field PL 375 99.8 29.5 112.9 86 0 -2 0 377 29
04/19/17 Video View Stanton, Giancarlo MIA Hernandez, Felix SEA 3 Safeco Field ND 448 109.1 25.8 95.1 101 0 -2 0 450 30
05/02/17 Video View Valencia, Danny SEA Shoemaker, Matt LAA 6 Safeco Field PL 384 101.0 32.5 110.8 108 0 -2 0 386 30
05/02/17 Video View Calhoun, Kole LAA Diaz, Edwin SEA 8 Safeco Field PL 363 98.9 34.7 63.4 110 0 -2 0 366 29
05/05/17 Video View Odor, Rougned TEX Pagan, Emilio SEA 13 Safeco Field PL 395 107.4 24.1 69.2 70 -1 -2 0 399 30
05/07/17 Video View Seager, Kyle SEA Dyson, Sam TEX 8 Safeco Field JE/L 395 98.5 32.5 79.7 107 10 -2 0 386 16
05/15/17 Video View Cruz, Nelson SEA Manaea, Sean OAK 2 Safeco Field PL 431 105.4 26.3 89.9 98 0 -2 0 433 30
05/15/17 Video View Davis, Khris OAK Gallardo, Yovani SEA 4 Safeco Field PL 431 105.8 25.5 88.7 94 0 -2 0 433 29
05/15/17 Video View Vogt, Stephen OAK Gallardo, Yovani SEA 5 Safeco Field JE 367 97.0 29.1 72.4 84 0 -2 0 369 12
05/18/17 Video View Frazier, Todd CHW Altavilla, Dan SEA 8 Safeco Field PL 378 101.1 31.9 117.5 98 0 -2 0 380 30
04/12/17 Video View Freeman, Mike SEA Fiers, Mike HOU 2 Safeco Field PL 357 98.0 36.2 68.6 122 0 -3 0 360 23
04/17/17 Video View Motter, Taylor SEA Urena, Jose MIA 5 Safeco Field ND 409 106.2 30.5 111.8 107 0 -3 0 412 30
05/18/17 Video View Davidson, Matt CHW Lawrence, Casey SEA 7 Safeco Field JE/L 350 98.5 38.6 110.1 137 3 -3 0 350 6
05/06/17 Video View Napoli, Mike TEX Altavilla, Dan SEA 9 Safeco Field PL 372 100.9 33.4 107.8 121 -10 -5 0 387 30
05/16/17 Video View Healy, Ryon OAK De-Jong, Chase SEA 2 Safeco Field ND 432 110.3 30.4 107.9 121 0 -5 0 437 30
05/16/17 Video View Seager, Kyle SEA Madson, Ryan OAK 8 Safeco Field PL 355 97.8 36.6 71.0 126 0 -5 0 360 19


About HitTracker | Contact Us
© 2006-2017 HitTrackerOnline